Time;durP1;ratioP1;P1;durP2;ratioP2;P2;SDS_P1;SDS_P2;PMS_P1;PMS_P2;Temp;Humidity;BMP_temperature;BMP_pressure;BME280_temperature;BME280_humidity;BME280_pressure;Samples;Min_cycle;Max_cycle;Signal;HPM_P1;HPM_P2
2021/12/04 00:01:26;;;;;;;41.08;24.17;;;4.60;99.90;;;;;;2104761;67;20206;-70
2021/12/04 00:04:08;;;;;;;40.80;22.30;;;4.80;99.90;;;;;;2094073;67;20669;-71
2021/12/04 00:06:50;;;;;;;42.40;23.23;;;5.10;99.90;;;;;;2104563;67;20347;-70
2021/12/04 00:09:32;;;;;;;41.28;22.90;;;4.60;99.90;;;;;;2091555;68;20333;-70
2021/12/04 00:12:14;;;;;;;35.58;22.10;;;4.60;99.90;;;;;;2104616;67;20348;-70
2021/12/04 00:14:59;;;;;;;38.70;23.02;;;4.60;99.90;;;;;;2104452;68;20240;-69
2021/12/04 00:17:42;;;;;;;45.17;24.88;;;4.60;99.90;;;;;;2103335;68;20335;-70
2021/12/04 00:20:30;;;;;;;44.65;25.42;;;4.60;99.90;;;;;;2097834;68;20337;-71
2021/12/04 00:23:13;;;;;;;47.17;25.67;;;4.60;99.90;;;;;;2095072;68;20187;-70
2021/12/04 00:25:55;;;;;;;45.72;25.40;;;4.50;99.90;;;;;;2080516;68;20337;-70
2021/12/04 00:28:38;;;;;;;50.30;25.83;;;4.60;99.90;;;;;;2084140;68;20838;-70
2021/12/04 00:31:20;;;;;;;55.80;28.05;;;5.00;99.90;;;;;;2097584;68;20348;-72
2021/12/04 00:34:04;;;;;;;59.30;28.65;;;4.50;99.90;;;;;;2097791;68;20334;-71
2021/12/04 00:49:09;;;;;;;54.42;26.17;;;4.50;99.90;;;;;;2076609;69;20450;-70
2021/12/04 00:51:58;;;;;;;52.97;28.25;;;4.50;99.90;;;;;;2076474;69;20189;-70
2021/12/04 00:54:46;;;;;;;52.70;25.08;;;4.50;99.90;;;;;;2066138;69;20869;-70
2021/12/04 00:57:44;;;;;;;56.25;25.83;;;4.50;99.90;;;;;;2075113;69;20331;-69
2021/12/04 01:00:26;;;;;;;60.65;28.00;;;4.50;99.90;;;;;;2081035;68;20180;-70
2021/12/04 01:03:09;;;;;;;64.20;28.15;;;4.50;99.90;;;;;;2077636;68;20193;-70
2021/12/04 01:05:53;;;;;;;;;;;4.50;99.90;;;;;;2094532;68;20219;-70
2021/12/04 01:08:36;;;;;;;54.70;28.23;;;4.50;99.90;;;;;;2092015;68;20087;-70
2021/12/04 01:11:20;;;;;;;59.35;29.60;;;4.50;99.90;;;;;;2079973;68;20168;-69
2021/12/04 01:14:03;;;;;;;57.17;28.40;;;4.50;99.90;;;;;;2099093;67;20316;-70
2021/12/04 01:16:45;;;;;;;63.63;30.88;;;4.80;99.90;;;;;;2104836;67;20461;-70
2021/12/04 01:19:26;;;;;;;58.15;29.00;;;4.50;99.90;;;;;;2105034;67;20282;-69
2021/12/04 01:22:09;;;;;;;61.70;29.98;;;4.50;99.90;;;;;;2104335;68;20218;-69
2021/12/04 01:24:50;;;;;;;56.33;28.42;;;4.40;99.90;;;;;;2104903;67;20448;-69
2021/12/04 01:27:32;;;;;;;63.28;30.27;;;4.60;99.90;;;;;;2103916;68;20241;-70
2021/12/04 01:30:16;;;;;;;63.92;29.13;;;4.50;99.90;;;;;;2096809;68;20681;-71
2021/12/04 01:33:01;;;;;;;60.83;29.38;;;4.50;99.90;;;;;;2098555;67;20447;-71
2021/12/04 01:35:46;;;;;;;63.03;28.98;;;4.50;99.90;;;;;;2102330;68;20219;-69
2021/12/04 01:38:28;;;;;;;61.80;29.15;;;4.50;99.90;;;;;;2096989;68;20194;-70
2021/12/04 01:41:12;;;;;;;64.90;28.60;;;4.50;99.90;;;;;;2097214;68;20320;-70
2021/12/04 01:44:02;;;;;;;57.67;26.27;;;4.50;99.90;;;;;;2096713;68;20217;-69
2021/12/04 01:46:46;;;;;;;64.10;29.02;;;4.50;99.90;;;;;;2097224;68;20200;-69
2021/12/04 01:49:28;;;;;;;66.38;29.20;;;4.50;99.90;;;;;;2095021;68;20351;-69
2021/12/04 01:52:10;;;;;;;58.47;28.98;;;4.50;99.90;;;;;;2097730;68;20385;-70
2021/12/04 01:54:52;;;;;;;64.95;28.30;;;4.50;99.90;;;;;;2090960;68;20751;-70
2021/12/04 01:57:33;;;;;;;57.03;29.23;;;4.50;99.90;;;;;;2103580;68;20205;-72
2021/12/04 02:00:15;;;;;;;61.55;29.58;;;4.50;99.90;;;;;;2100096;68;20244;-70
2021/12/04 02:02:57;;;;;;;61.78;28.23;;;4.50;99.90;;;;;;2090137;68;20712;-70
2021/12/04 02:05:39;;;;;;;56.70;26.42;;;4.50;99.90;;;;;;2083152;68;20273;-70
2021/12/04 02:08:23;;;;;;;64.82;27.50;;;4.50;99.90;;;;;;2088876;68;20195;-70
2021/12/04 02:11:05;;;;;;;65.70;29.98;;;4.50;99.90;;;;;;2091277;68;20187;-70
2021/12/04 02:13:47;;;;;;;63.10;28.33;;;4.50;99.90;;;;;;2104114;68;20348;-70
2021/12/04 02:16:29;;;;;;;62.85;30.92;;;4.50;99.90;;;;;;2102141;68;20246;-70
2021/12/04 02:19:12;;;;;;;70.68;31.00;;;4.50;99.90;;;;;;2107760;67;20362;-70
2021/12/04 02:21:56;;;;;;;65.75;29.70;;;4.90;99.90;;;;;;2097510;68;20320;-70
2021/12/04 02:24:38;;;;;;;70.20;29.70;;;4.50;99.90;;;;;;2094009;68;20327;-69
2021/12/04 02:27:20;;;;;;;69.28;29.52;;;4.50;99.90;;;;;;2098597;68;20183;-70
2021/12/04 02:30:07;;;;;;;61.58;28.25;;;4.50;99.90;;;;;;2106457;68;20309;-70
2021/12/04 02:32:49;;;;;;;71.88;28.63;;;4.50;99.90;;;;;;2107521;67;20270;-70
2021/12/04 02:35:32;;;;;;;66.82;29.92;;;4.50;99.90;;;;;;2098023;68;20320;-70
2021/12/04 02:38:16;;;;;;;69.18;30.55;;;4.50;99.90;;;;;;2105401;67;20253;-70
2021/12/04 02:41:00;;;;;;;77.25;31.67;;;4.50;99.90;;;;;;2117891;67;21178;-70
2021/12/04 02:43:46;;;;;;;80.97;30.15;;;4.50;99.90;;;;;;2117270;67;20955;-70
2021/12/04 02:46:36;;;;;;;70.53;29.15;;;4.50;99.90;;;;;;2096852;68;20312;-70
2021/12/04 02:49:22;;;;;;;72.90;30.58;;;4.50;99.90;;;;;;2105933;67;20182;-69
2021/12/04 02:52:09;;;;;;;67.25;29.52;;;4.50;99.90;;;;;;2106005;67;20419;-70
2021/12/04 02:54:55;;;;;;;80.85;29.60;;;4.50;99.90;;;;;;2099098;67;20264;-70
2021/12/04 02:57:44;;;;;;;71.55;29.52;;;4.50;99.90;;;;;;2103838;68;20469;-71
2021/12/04 03:00:34;;;;;;;62.13;27.45;;;4.50;99.90;;;;;;2101515;68;20315;-71
2021/12/04 03:03:22;;;;;;;57.88;27.60;;;4.50;99.90;;;;;;2095406;68;20330;-71
2021/12/04 03:06:04;;;;;;;71.60;29.55;;;4.40;99.90;;;;;;2093160;68;20350;-70
2021/12/04 03:08:46;;;;;;;65.75;29.48;;;4.60;99.90;;;;;;2092751;68;20338;-70
2021/12/04 03:11:33;;;;;;;61.40;27.50;;;4.60;99.90;;;;;;2094913;68;20209;-70
2021/12/04 03:14:17;;;;;;;73.82;28.67;;;4.50;99.90;;;;;;2083794;68;20217;-70
2021/12/04 03:17:04;;;;;;;68.80;29.20;;;4.50;99.90;;;;;;2089752;68;20172;-68
2021/12/04 03:19:49;;;;;;;66.68;28.27;;;4.50;99.90;;;;;;2095770;68;20234;-70
2021/12/04 03:22:31;;;;;;;71.55;28.52;;;4.50;99.90;;;;;;2107480;67;20318;-70
2021/12/04 03:25:20;;;;;;;68.82;28.25;;;4.50;99.90;;;;;;2108169;67;20689;-70
2021/12/04 03:28:06;;;;;;;65.55;28.77;;;4.50;99.90;;;;;;2095847;68;20220;-70
2021/12/04 03:31:05;;;;;;;60.85;28.42;;;4.50;99.90;;;;;;2098499;67;20323;-69
2021/12/04 03:42:48;;;;;;;56.35;25.95;;;4.40;99.90;;;;;;2096107;68;20211;-70
2021/12/04 03:45:34;;;;;;;58.22;24.27;;;4.40;99.90;;;;;;2096960;67;20756;-70
2021/12/04 03:51:10;;;;;;;45.85;21.92;;;4.40;99.90;;;;;;2087167;68;20398;-70
2021/12/04 03:53:52;;;;;;;47.88;23.73;;;4.40;99.90;;;;;;2101460;68;20351;-71
2021/12/04 03:56:36;;;;;;;45.05;22.23;;;4.40;99.90;;;;;;2098269;68;20175;-70
2021/12/04 03:59:20;;;;;;;46.80;23.33;;;4.40;99.90;;;;;;2081585;68;20611;-70
2021/12/04 04:02:02;;;;;;;43.95;21.80;;;4.40;99.90;;;;;;2081554;68;20967;-70
2021/12/04 04:04:45;;;;;;;47.25;21.85;;;4.40;99.90;;;;;;2083476;68;20256;-71
2021/12/04 04:07:30;;;;;;;44.10;21.67;;;4.40;99.90;;;;;;2079015;68;20268;-70
2021/12/04 04:10:14;;;;;;;53.50;21.38;;;4.40;99.90;;;;;;2097485;68;20342;-70
2021/12/04 04:12:59;;;;;;;49.60;21.92;;;4.40;99.90;;;;;;2097401;68;20320;-71
2021/12/04 04:15:44;;;;;;;50.88;24.35;;;4.30;99.90;;;;;;2088248;68;20184;-71
2021/12/04 04:18:28;;;;;;;48.28;22.55;;;4.30;99.90;;;;;;2078253;68;20243;-70
2021/12/04 04:21:10;;;;;;;49.15;23.70;;;4.30;99.90;;;;;;2097155;68;20359;-71
2021/12/04 04:23:52;;;;;;;54.97;23.33;;;4.40;99.90;;;;;;2097686;68;20262;-71
2021/12/04 04:26:36;;;;;;;49.88;23.55;;;4.30;99.90;;;;;;2085224;68;20908;-70
2021/12/04 04:29:20;;;;;;;;;;;4.30;99.90;;;;;;2083474;68;20326;-70
2021/12/04 04:32:02;;;;;;;46.33;21.00;;;4.30;99.90;;;;;;2090593;68;20309;-69
2021/12/04 04:34:51;;;;;;;47.95;20.05;;;4.30;99.90;;;;;;2096683;68;20880;-71
2021/12/04 05:01:41;;;;;;;48.72;21.35;;;4.50;99.90;;;;;;2096265;68;20338;-70
2021/12/04 05:13:24;;;;;;;45.60;20.60;;;4.30;99.90;;;;;;2109565;67;20260;-70
2021/12/04 05:16:14;;;;;;;40.25;20.95;;;4.40;99.90;;;;;;2093863;68;20260;-70
2021/12/04 05:19:11;;;;;;;50.38;20.75;;;4.30;99.90;;;;;;2093540;68;20261;-70
2021/12/04 05:21:53;;;;;;;47.33;20.38;;;4.30;99.90;;;;;;2067548;69;20377;-70
2021/12/04 05:24:35;;;;;;;42.17;18.60;;;4.30;99.90;;;;;;2072393;69;20185;-71
2021/12/04 05:27:18;;;;;;;41.28;19.52;;;4.30;99.90;;;;;;2084674;68;20301;-70
2021/12/04 05:30:04;;;;;;;42.20;19.80;;;4.40;99.90;;;;;;2073349;68;20189;-71
2021/12/04 05:32:46;;;;;;;44.00;19.25;;;4.30;99.90;;;;;;2086042;68;20233;-70
2021/12/04 05:35:29;;;;;;;38.97;19.27;;;4.30;99.90;;;;;;2093764;68;20179;-70
2021/12/04 05:38:10;;;;;;;47.85;21.13;;;4.40;99.90;;;;;;2094491;68;20333;-70
2021/12/04 05:40:53;;;;;;;44.38;20.88;;;4.30;99.90;;;;;;2097342;68;20198;-69
2021/12/04 05:43:38;;;;;;;43.90;20.45;;;4.30;99.90;;;;;;2111489;67;20299;-70
2021/12/04 05:46:27;;;;;;;37.87;18.33;;;4.30;99.90;;;;;;2119165;67;20169;-71
2021/12/04 05:57:58;;;;;;;36.50;17.70;;;4.30;99.90;;;;;;2107472;67;20240;-69
2021/12/04 06:00:39;;;;;;;39.20;17.33;;;4.30;99.90;;;;;;2111593;67;20206;-70
2021/12/04 06:03:22;;;;;;;34.13;16.92;;;4.20;99.90;;;;;;2121837;67;20218;-69
2021/12/04 06:06:05;;;;;;;33.78;16.50;;;4.30;99.90;;;;;;2109793;67;20479;-70
2021/12/04 06:08:46;;;;;;;39.17;17.85;;;4.30;99.90;;;;;;2111765;67;20208;-71
2021/12/04 06:11:29;;;;;;;35.38;16.98;;;4.30;99.90;;;;;;2132875;67;20404;-70
2021/12/04 06:14:12;;;;;;;36.88;16.63;;;4.50;99.90;;;;;;2136357;67;20350;-70
2021/12/04 06:16:56;;;;;;;35.30;16.85;;;4.30;99.90;;;;;;2136751;66;20199;-69
2021/12/04 06:22:40;;;;;;;36.60;17.85;;;4.30;99.90;;;;;;2124831;67;20218;-70
2021/12/04 06:25:26;;;;;;;35.03;16.23;;;4.30;99.90;;;;;;2120801;67;20213;-70
2021/12/04 06:28:07;;;;;;;38.20;17.25;;;4.30;99.90;;;;;;2110160;67;20796;-71
2021/12/04 06:30:52;;;;;;;33.63;16.77;;;4.30;99.90;;;;;;2119680;67;20185;-70
2021/12/04 06:33:38;;;;;;;35.22;18.08;;;4.30;99.90;;;;;;2123162;67;20248;-69
2021/12/04 06:36:22;;;;;;;32.00;16.92;;;4.30;99.90;;;;;;2111062;67;20311;-69
2021/12/04 06:39:06;;;;;;;29.55;17.65;;;4.30;99.90;;;;;;2102546;67;20186;-70
2021/12/04 06:41:48;;;;;;;37.33;17.20;;;4.30;99.90;;;;;;2115497;67;20642;-69
2021/12/04 06:44:30;;;;;;;34.72;18.35;;;4.40;99.90;;;;;;2120091;67;20382;-69
2021/12/04 06:47:12;;;;;;;39.05;17.73;;;4.40;99.90;;;;;;2119710;67;20264;-69
2021/12/04 06:50:00;;;;;;;42.90;17.90;;;4.30;99.90;;;;;;2138642;66;20327;-71
2021/12/04 06:52:45;;;;;;;38.92;17.02;;;4.30;99.90;;;;;;2138536;66;20557;-69
2021/12/04 06:55:37;;;;;;;36.25;17.65;;;4.30;99.90;;;;;;2116312;67;20180;-69
2021/12/04 06:58:19;;;;;;;35.70;17.60;;;4.80;99.90;;;;;;2103621;67;20239;-69
2021/12/04 07:01:03;;;;;;;44.67;19.15;;;4.40;99.90;;;;;;2104421;67;20430;-71
2021/12/04 07:03:49;;;;;;;39.95;17.92;;;4.30;99.90;;;;;;2101904;68;20339;-70
2021/12/04 07:06:32;;;;;;;43.92;18.60;;;4.40;99.90;;;;;;2097163;68;20732;-70
2021/12/04 07:09:17;;;;;;;;;;;4.40;99.90;;;;;;2098268;68;20175;-70
2021/12/04 07:12:26;;;;;;;39.63;17.60;;;4.40;99.90;;;;;;2107735;67;20211;-70
2021/12/04 07:15:13;;;;;;;43.28;20.13;;;3.60;99.90;;;;;;2089847;68;20288;-70
2021/12/04 07:17:56;;;;;;;38.03;18.50;;;4.30;99.90;;;;;;2089876;68;20319;-71
2021/12/04 07:20:39;;;;;;;37.15;17.45;;;4.40;99.90;;;;;;2096694;68;20203;-70
2021/12/04 07:23:25;;;;;;;45.55;18.80;;;4.40;99.90;;;;;;2094547;68;20203;-69
2021/12/04 07:26:10;;;;;;;37.75;17.30;;;4.50;99.90;;;;;;2089676;68;20278;-69
2021/12/04 07:28:52;;;;;;;39.58;18.67;;;4.40;99.90;;;;;;2084682;68;20179;-70
2021/12/04 07:31:39;;;;;;;37.78;17.25;;;4.40;99.90;;;;;;2098749;68;20218;-69
2021/12/04 07:34:21;;;;;;;34.60;17.63;;;4.40;99.90;;;;;;2103605;68;20269;-70
2021/12/04 07:37:04;;;;;;;40.33;17.80;;;4.40;99.90;;;;;;2101619;68;20700;-71
2021/12/04 07:39:57;;;;;;;35.35;17.98;;;4.40;99.90;;;;;;2102788;68;20306;-71
2021/12/04 07:42:41;;;;;;;34.92;16.85;;;4.40;99.90;;;;;;2108647;67;20278;-71
2021/12/04 07:45:28;;;;;;;36.05;17.90;;;4.40;99.90;;;;;;2090827;68;20192;-71
2021/12/04 07:48:14;;;;;;;35.30;18.17;;;4.40;99.90;;;;;;2095636;68;20267;-73
2021/12/04 07:50:56;;;;;;;36.35;16.33;;;5.10;99.90;;;;;;2093380;67;20294;-71
2021/12/04 07:53:40;;;;;;;36.42;17.17;;;4.50;99.90;;;;;;2119251;67;20358;-70
2021/12/04 07:56:24;;;;;;;34.63;16.65;;;4.50;99.90;;;;;;2134381;66;20297;-70
2021/12/04 07:59:06;;;;;;;35.13;16.40;;;4.40;99.90;;;;;;2146882;66;20171;-71
2021/12/04 08:01:48;;;;;;;35.50;15.45;;;4.40;99.90;;;;;;2129808;67;20192;-69
2021/12/04 08:04:30;;;;;;;32.17;16.73;;;4.50;99.90;;;;;;2124364;67;20312;-70
2021/12/04 08:07:12;;;;;;;33.40;16.13;;;4.60;99.90;;;;;;2133539;67;20389;-70
2021/12/04 08:09:54;;;;;;;38.03;18.05;;;4.50;99.90;;;;;;2134348;67;20432;-70
2021/12/04 08:12:39;;;;;;;39.75;17.35;;;4.50;99.90;;;;;;2124105;67;20296;-70
2021/12/04 08:15:21;;;;;;;32.33;15.98;;;4.50;99.90;;;;;;2118652;67;20193;-71
2021/12/04 08:18:07;;;;;;;37.50;15.40;;;4.50;99.90;;;;;;2118505;67;20323;-70
2021/12/04 08:20:50;;;;;;;35.03;16.65;;;4.50;99.90;;;;;;2111709;67;20765;-71
2021/12/04 08:23:34;;;;;;;34.55;16.08;;;4.50;99.90;;;;;;2111474;67;20900;-70
2021/12/04 08:26:16;;;;;;;35.70;16.17;;;4.50;99.90;;;;;;2111466;67;20252;-70
2021/12/04 08:28:58;;;;;;;40.25;17.42;;;4.50;99.90;;;;;;2106774;67;20346;-71
2021/12/04 08:31:42;;;;;;;37.17;16.80;;;4.60;99.90;;;;;;2099489;68;20195;-70
2021/12/04 08:34:30;;;;;;;27.75;15.32;;;4.60;99.90;;;;;;2104612;67;20662;-71
2021/12/04 08:37:12;;;;;;;32.78;16.98;;;4.60;99.90;;;;;;2111642;67;20249;-70
2021/12/04 08:39:54;;;;;;;30.90;15.27;;;4.60;99.90;;;;;;2111982;67;20181;-70
2021/12/04 08:42:35;;;;;;;32.58;15.18;;;4.60;99.90;;;;;;2118813;67;20201;-70
2021/12/04 08:45:17;;;;;;;27.77;14.38;;;4.60;99.90;;;;;;2129208;67;20270;-72
2021/12/04 08:47:59;;;;;;;31.85;14.57;;;4.60;99.90;;;;;;2112776;67;20189;-69
2021/12/04 08:50:43;;;;;;;24.73;13.57;;;4.60;99.90;;;;;;2111639;67;20285;-71
2021/12/04 08:53:28;;;;;;;26.10;14.20;;;4.90;99.90;;;;;;2104359;68;20248;-70
2021/12/04 08:56:11;;;;;;;29.20;14.52;;;4.60;99.90;;;;;;2094476;67;20280;-70
2021/12/04 08:58:55;;;;;;;29.92;14.30;;;4.60;99.90;;;;;;2104332;67;20170;-70
2021/12/04 09:01:40;;;;;;;25.45;14.50;;;4.60;99.90;;;;;;2117911;67;20749;-71
2021/12/04 09:04:29;;;;;;;26.50;14.63;;;4.60;99.90;;;;;;2119083;67;20224;-70
2021/12/04 09:07:15;;;;;;;27.33;14.35;;;4.70;99.90;;;;;;2125514;67;20263;-70
2021/12/04 09:09:57;;;;;;;21.73;12.85;;;4.70;99.90;;;;;;2118383;67;20202;-70
2021/12/04 09:12:41;;;;;;;22.30;13.05;;;4.50;99.90;;;;;;2124651;67;20188;-70
2021/12/04 09:15:31;;;;;;;24.73;12.73;;;4.60;99.90;;;;;;2130777;67;20352;-71
2021/12/04 09:18:14;;;;;;;22.10;11.60;;;4.60;99.90;;;;;;2119458;67;20444;-69
2021/12/04 09:20:59;;;;;;;21.35;11.73;;;4.60;99.90;;;;;;2126646;67;20260;-70
2021/12/04 09:23:46;;;;;;;18.02;10.93;;;4.70;99.90;;;;;;2123207;67;20352;-70
2021/12/04 09:26:43;;;;;;;17.85;10.50;;;4.80;99.90;;;;;;2112158;67;20296;-71
2021/12/04 09:35:16;;;;;;;18.95;11.00;;;4.70;99.90;;;;;;2094905;67;20254;-71
2021/12/04 10:20:58;;;;;;;12.25;8.93;;;5.10;99.90;;;;;;2104522;67;20170;-69
2021/12/04 10:32:55;;;;;;;13.73;9.25;;;5.20;99.90;;;;;;2108125;67;20235;-70
2021/12/04 10:35:38;;;;;;;13.65;9.18;;;5.20;99.90;;;;;;2103663;67;20239;-71
2021/12/04 10:38:28;;;;;;;13.50;9.18;;;5.30;99.90;;;;;;2104719;67;20765;-71
2021/12/04 10:41:17;;;;;;;13.70;9.05;;;5.30;99.90;;;;;;2109371;67;20795;-69
2021/12/04 10:44:37;;;;;;;11.77;8.88;;;5.30;99.90;;;;;;2096188;68;20203;-70
2021/12/04 10:47:23;;;;;;;15.40;9.25;;;5.30;99.90;;;;;;2099594;68;20627;-70
2021/12/04 10:50:37;;;;;;;14.50;9.57;;;5.30;99.90;;;;;;2096956;68;20217;-71
2021/12/04 10:53:50;;;;;;;11.95;9.27;;;5.40;99.90;;;;;;2101924;67;20310;-70
2021/12/04 11:03:03;;;;;;;14.57;10.25;;;5.50;99.90;;;;;;2088306;68;20207;-69
2021/12/04 11:06:41;;;;;;;13.55;9.50;;;5.60;99.90;;;;;;2084374;68;20284;-70
2021/12/04 11:24:54;;;;;;;14.35;10.38;;;5.60;99.90;;;;;;2116319;67;20388;-70
2021/12/04 11:45:15;;;;;;;12.40;7.57;;;5.60;99.90;;;;;;2086564;68;20619;-73
2021/12/04 11:48:08;;;;;;;14.98;9.23;;;5.60;99.90;;;;;;2093349;68;20203;-70
2021/12/04 11:51:29;;;;;;;16.27;8.95;;;5.70;99.90;;;;;;2090922;68;20175;-71
2021/12/04 11:54:25;;;;;;;12.65;8.82;;;5.70;99.90;;;;;;2088899;68;20839;-71
2021/12/04 11:57:14;;;;;;;14.35;9.15;;;5.80;99.90;;;;;;2086286;68;20179;-72
2021/12/04 12:00:34;;;;;;;11.77;8.27;;;5.70;99.90;;;;;;2084078;68;20188;-71
2021/12/04 12:03:27;;;;;;;14.05;8.43;;;5.70;99.90;;;;;;2097202;68;20386;-73
2021/12/04 12:09:46;;;;;;;;;;;;;;;;;;;;;
2021/12/04 12:12:36;;;;;;;12.40;8.48;;;5.70;99.90;;;;;;2112983;67;20367;-70
2021/12/04 12:15:47;;;;;;;12.95;8.43;;;5.70;99.90;;;;;;2095976;68;20332;-72
2021/12/04 12:18:51;;;;;;;15.02;9.00;;;5.70;99.90;;;;;;2095189;68;20211;-71
2021/12/04 12:37:26;;;;;;;17.00;10.98;;;5.80;99.90;;;;;;2107844;67;20177;-69
2021/12/04 12:40:40;;;;;;;19.75;10.73;;;5.80;99.90;;;;;;2121850;67;20239;-71
2021/12/04 12:43:36;;;;;;;18.45;11.82;;;6.30;99.90;;;;;;2125593;67;20231;-70
2021/12/04 12:46:19;;;;;;;19.40;12.23;;;5.60;99.90;;;;;;2125127;67;20180;-70
2021/12/04 12:49:26;;;;;;;21.38;11.73;;;6.00;99.90;;;;;;2125279;67;20184;-71
2021/12/04 12:52:13;;;;;;;20.75;11.70;;;6.00;99.90;;;;;;2122820;67;20217;-70
2021/12/04 12:55:02;;;;;;;18.42;10.75;;;5.90;99.90;;;;;;2139685;66;20702;-70
2021/12/04 12:57:48;;;;;;;17.63;12.52;;;5.90;99.90;;;;;;2132474;67;20267;-71
2021/12/04 13:12:21;;;;;;;22.08;13.40;;;6.20;99.90;;;;;;2091273;68;20267;-70
2021/12/04 13:15:03;;;;;;;20.85;12.70;;;5.70;99.90;;;;;;2095023;68;20230;-70
2021/12/04 13:18:32;;;;;;;21.25;13.32;;;5.70;99.90;;;;;;2096963;68;20241;-71
2021/12/04 13:21:16;;;;;;;24.10;13.23;;;5.70;99.90;;;;;;2113207;67;20181;-70
2021/12/04 13:23:58;;;;;;;24.83;13.82;;;5.60;99.90;;;;;;2101849;67;20276;-71
2021/12/04 13:26:49;;;;;;;23.00;13.18;;;5.60;99.90;;;;;;2082261;68;20770;-71
2021/12/04 13:29:33;;;;;;;20.08;13.05;;;5.60;99.90;;;;;;2078981;68;20184;-70
2021/12/04 13:32:18;;;;;;;23.92;13.38;;;5.60;99.90;;;;;;2071159;69;20326;-69
2021/12/04 13:35:25;;;;;;;25.10;14.07;;;5.60;99.90;;;;;;2088923;68;21077;-70
2021/12/04 13:38:12;;;;;;;23.17;14.02;;;5.60;99.90;;;;;;2084848;68;20257;-71
2021/12/04 13:40:58;;;;;;;28.15;15.93;;;5.60;99.90;;;;;;2075974;68;20883;-69
2021/12/04 13:43:40;;;;;;;29.25;15.57;;;5.60;99.90;;;;;;2091882;68;20868;-71
2021/12/04 13:46:23;;;;;;;28.30;16.75;;;5.60;99.90;;;;;;2100984;68;20906;-70
2021/12/04 13:49:05;;;;;;;29.85;16.08;;;5.50;99.90;;;;;;2111026;67;20297;-70
2021/12/04 13:51:58;;;;;;;24.55;13.95;;;5.50;99.90;;;;;;2116879;67;20181;-70
2021/12/04 13:54:51;;;;;;;24.17;13.80;;;5.50;99.90;;;;;;2116484;67;20222;-70
2021/12/04 13:57:41;;;;;;;24.95;14.13;;;4.60;99.90;;;;;;2128096;67;20305;-69
2021/12/04 14:00:23;;;;;;;26.55;14.35;;;5.50;99.90;;;;;;2132151;67;20212;-68
2021/12/04 14:03:07;;;;;;;28.52;15.38;;;5.50;99.90;;;;;;2123502;67;20298;-70
2021/12/04 14:05:48;;;;;;;28.08;16.40;;;5.50;99.90;;;;;;2123402;67;20416;-69
2021/12/04 14:08:29;;;;;;;34.53;16.83;;;5.50;99.90;;;;;;2124885;67;20232;-69
2021/12/04 14:11:12;;;;;;;29.55;15.80;;;5.40;99.90;;;;;;2117450;67;20189;-70
2021/12/04 14:13:54;;;;;;;28.58;15.93;;;5.50;99.90;;;;;;2123881;67;20527;-69
2021/12/04 14:16:56;;;;;;;29.42;15.40;;;5.80;99.90;;;;;;2111984;67;20346;-70
2021/12/04 14:19:38;;;;;;;29.73;15.60;;;5.50;99.90;;;;;;2087454;68;20202;-69
2021/12/04 14:22:20;;;;;;;28.08;15.35;;;5.50;99.90;;;;;;2116090;67;20642;-69
2021/12/04 14:25:03;;;;;;;32.75;16.75;;;5.50;99.90;;;;;;2111236;67;20643;-70
2021/12/04 14:27:46;;;;;;;32.65;15.93;;;5.50;99.90;;;;;;2103194;68;20187;-70
2021/12/04 14:30:33;;;;;;;29.45;15.63;;;5.50;99.90;;;;;;2103928;67;20326;-69
2021/12/04 14:33:22;;;;;;;30.08;15.43;;;5.50;99.90;;;;;;2099837;68;20241;-69
2021/12/04 14:36:07;;;;;;;29.92;16.00;;;5.50;99.90;;;;;;2089957;68;20317;-69
2021/12/04 14:38:50;;;;;;;36.25;16.58;;;5.60;99.90;;;;;;2089176;68;20677;-70
2021/12/04 14:41:32;;;;;;;34.28;16.45;;;5.10;99.90;;;;;;2088088;68;20745;-70
2021/12/04 14:44:14;;;;;;;37.85;17.60;;;5.60;99.90;;;;;;2091210;68;20604;-70
2021/12/04 14:47:00;;;;;;;30.93;16.20;;;5.60;99.90;;;;;;2094985;68;20572;-70
2021/12/04 14:49:44;;;;;;;29.75;16.35;;;5.60;99.90;;;;;;2092845;68;20225;-70
2021/12/04 14:52:30;;;;;;;32.65;16.60;;;5.60;99.90;;;;;;2096384;68;20259;-70
2021/12/04 14:55:35;;;;;;;32.08;17.33;;;5.50;99.90;;;;;;2091715;68;20196;-70
2021/12/04 14:58:26;;;;;;;35.42;18.77;;;5.50;99.90;;;;;;2090079;68;20221;-69
2021/12/04 15:01:13;;;;;;;37.25;17.98;;;5.60;99.90;;;;;;2080128;68;20272;-71
2021/12/04 15:04:02;;;;;;;30.92;17.63;;;5.70;99.90;;;;;;2087481;68;20337;-70
2021/12/04 15:06:45;;;;;;;35.58;19.58;;;5.50;99.90;;;;;;2095130;68;20233;-69
2021/12/04 15:09:28;;;;;;;39.22;19.95;;;5.80;99.90;;;;;;2087849;68;20196;-69
2021/12/04 15:12:13;;;;;;;33.83;17.98;;;5.50;99.90;;;;;;2096658;68;20175;-69
2021/12/04 15:14:58;;;;;;;39.25;18.00;;;5.50;99.90;;;;;;2108255;67;20218;-69
2021/12/04 15:17:42;;;;;;;37.70;19.55;;;5.50;99.90;;;;;;2115811;67;20341;-69
2021/12/04 15:20:33;;;;;;;38.78;19.95;;;5.50;99.90;;;;;;2114825;67;20357;-71
2021/12/04 15:23:20;;;;;;;44.03;21.02;;;5.50;99.90;;;;;;2100730;67;20403;-70
2021/12/04 15:26:11;;;;;;;38.22;20.80;;;5.80;99.90;;;;;;2101995;67;20567;-68
2021/12/04 15:28:55;;;;;;;43.88;20.98;;;5.50;99.90;;;;;;2100078;67;20183;-71
2021/12/04 15:31:40;;;;;;;44.08;21.92;;;5.40;99.90;;;;;;2103139;67;20697;-69
2021/12/04 15:35:08;;;;;;;40.03;22.33;;;5.50;99.90;;;;;;2105413;67;20225;-69
2021/12/04 15:38:06;;;;;;;;;;;5.40;99.90;;;;;;2103723;67;21039;-71
2021/12/04 15:41:17;;;;;;;50.83;22.05;;;5.40;99.90;;;;;;2103828;67;20199;-72
2021/12/04 15:47:18;;;;;;;45.33;22.02;;;5.40;99.90;;;;;;2084026;68;20258;-71
2021/12/04 15:50:41;;;;;;;45.33;23.83;;;5.40;99.90;;;;;;2096250;68;20246;-73
2021/12/04 15:54:04;;;;;;;59.58;24.90;;;5.40;99.90;;;;;;2111022;67;20297;-72
2021/12/04 15:57:24;;;;;;;52.60;24.52;;;5.30;99.90;;;;;;2124426;67;20234;-69
2021/12/04 16:00:31;;;;;;;53.17;25.67;;;5.30;99.90;;;;;;2118035;67;20797;-69
2021/12/04 16:03:27;;;;;;;61.72;26.30;;;5.30;99.90;;;;;;2118574;67;20714;-71
2021/12/04 16:06:16;;;;;;;44.97;22.75;;;5.30;99.90;;;;;;2092164;68;20315;-72
2021/12/04 16:09:03;;;;;;;53.35;25.90;;;5.40;99.90;;;;;;2094648;68;20733;-76
2021/12/04 16:11:45;;;;;;;44.55;22.80;;;5.30;99.90;;;;;;2095384;68;20364;-71
2021/12/04 16:14:55;;;;;;;50.50;24.25;;;5.30;99.90;;;;;;2104484;67;20288;-72
2021/12/04 16:17:39;;;;;;;50.97;24.00;;;5.40;99.90;;;;;;2103246;67;20377;-70
2021/12/04 16:20:28;;;;;;;45.53;23.98;;;5.40;99.90;;;;;;2118802;67;20193;-70
2021/12/04 16:23:10;;;;;;;49.30;26.60;;;5.40;99.90;;;;;;2127203;67;20257;-68
2021/12/04 16:25:53;;;;;;;56.90;28.85;;;5.30;99.90;;;;;;2123871;67;20752;-69
2021/12/04 16:29:01;;;;;;;53.17;27.30;;;5.30;99.90;;;;;;2133116;67;20319;-69
2021/12/04 16:32:10;;;;;;;58.45;28.85;;;5.30;99.90;;;;;;2137184;66;20291;-68
2021/12/04 16:37:52;;;;;;;52.17;24.95;;;5.40;99.90;;;;;;2124320;67;20217;-69
2021/12/04 16:41:11;;;;;;;58.58;27.88;;;5.30;99.90;;;;;;2100427;67;20191;-69
2021/12/04 16:44:06;;;;;;;44.50;22.70;;;5.40;99.90;;;;;;2108679;67;20825;-68
2021/12/04 16:46:49;;;;;;;49.75;23.60;;;5.30;99.90;;;;;;2111460;67;20757;-69
2021/12/04 16:49:32;;;;;;;53.63;26.27;;;5.40;99.90;;;;;;2114349;67;20397;-69
2021/12/04 16:55:23;;;;;;;51.47;24.42;;;5.40;99.90;;;;;;2091711;67;20179;-70
2021/12/04 16:58:34;;;;;;;50.22;25.42;;;5.30;99.90;;;;;;2095974;68;20234;-69
2021/12/04 17:01:22;;;;;;;51.47;25.85;;;5.40;99.90;;;;;;2095322;68;20211;-70
2021/12/04 17:04:27;;;;;;;50.25;25.10;;;5.40;99.90;;;;;;2117618;67;20164;-71
2021/12/04 17:07:08;;;;;;;43.45;22.98;;;5.40;99.90;;;;;;2111099;67;20713;-69
2021/12/04 17:09:50;;;;;;;57.55;26.25;;;5.40;99.90;;;;;;2118269;67;20382;-67
2021/12/04 17:12:37;;;;;;;50.38;25.42;;;5.50;99.90;;;;;;2123346;67;20193;-68
2021/12/04 17:15:19;;;;;;;60.38;28.10;;;5.40;99.90;;;;;;2109750;67;20400;-68
2021/12/04 17:18:15;;;;;;;51.58;26.75;;;5.40;99.90;;;;;;2090339;68;20215;-69
2021/12/04 17:21:00;;;;;;;54.33;26.43;;;5.40;99.90;;;;;;2097776;68;20205;-68
2021/12/04 17:23:43;;;;;;;54.80;27.83;;;5.30;99.90;;;;;;2103476;67;20225;-70
2021/12/04 17:26:29;;;;;;;53.70;27.58;;;5.30;99.90;;;;;;2102198;67;20225;-68
2021/12/04 17:29:53;;;;;;;60.70;26.95;;;5.80;99.90;;;;;;2118804;67;20207;-70
2021/12/04 17:32:37;;;;;;;56.28;26.40;;;5.30;99.90;;;;;;2125575;67;20388;-68
2021/12/04 17:35:41;;;;;;;66.65;32.08;;;5.30;99.90;;;;;;2122236;67;20256;-68
2021/12/04 17:38:36;;;;;;;61.88;28.13;;;5.30;99.90;;;;;;2108260;67;20173;-69
2021/12/04 17:41:30;;;;;;;75.32;30.45;;;5.20;99.90;;;;;;2103802;67;20379;-69
2021/12/04 17:44:21;;;;;;;55.35;27.48;;;5.30;99.90;;;;;;2101114;67;20182;-68
2021/12/04 17:47:20;;;;;;;87.60;35.35;;;5.20;99.90;;;;;;2105236;67;20349;-69
2021/12/04 17:50:14;;;;;;;62.80;28.38;;;5.30;99.90;;;;;;2097853;68;20383;-69
2021/12/04 17:53:05;;;;;;;53.70;25.83;;;5.30;99.90;;;;;;2104209;67;20649;-68